Time;durP1;ratioP1;P1;durP2;ratioP2;P2;SDS_P1;SDS_P2;PMS_P1;PMS_P2;Temp;Humidity;BMP_temperature;BMP_pressure;BME280_temperature;BME280_humidity;BME280_pressure;Samples;Min_cycle;Max_cycle;Signal;HPM_P1;HPM_P2
2022/01/15 00:00:35;;;;;;;71.55;35.05;;;;;;;-0.69;70.89;100548.69;5166990;28;20101;-79
2022/01/15 00:03:28;;;;;;;74.13;35.58;;;;;;;-0.52;70.40;100567.41;5165959;28;20049;-79
2022/01/15 00:06:19;;;;;;;85.13;39.03;;;;;;;-0.76;70.23;100541.91;5165910;28;20465;-79
2022/01/15 00:09:09;;;;;;;77.78;35.97;;;;;;;-0.67;70.46;100543.44;5165596;28;20048;-79
2022/01/15 00:11:59;;;;;;;73.43;35.00;;;;;;;-0.81;70.37;100523.78;5152904;28;20056;-81
2022/01/15 00:14:51;;;;;;;75.20;34.42;;;;;;;-0.64;70.67;100546.81;5176455;28;20069;-81
2022/01/15 00:17:48;;;;;;;69.25;33.85;;;;;;;-0.66;70.04;100540.81;5174113;28;20135;-79
2022/01/15 00:20:39;;;;;;;68.70;33.80;;;;;;;-0.74;70.84;100529.69;5182148;28;20057;-81
2022/01/15 00:23:29;;;;;;;64.95;32.92;;;;;;;-0.67;71.55;100549.50;5141515;28;20069;-79
2022/01/15 00:26:19;;;;;;;77.38;34.78;;;;;;;-0.56;71.51;100537.09;5168250;28;20057;-79
2022/01/15 00:29:09;;;;;;;76.32;35.03;;;;;;;-0.52;71.47;100545.69;5177528;28;20074;-80
2022/01/15 00:32:02;;;;;;;78.13;36.92;;;;;;;-0.59;70.77;100539.78;5154090;28;20057;-80
2022/01/15 00:34:52;;;;;;;73.63;34.08;;;;;;;-0.68;71.34;100546.94;5141680;28;20281;-80
2022/01/15 00:37:43;;;;;;;76.32;36.13;;;;;;;-0.75;70.48;100541.88;5171586;28;20050;-80
2022/01/15 00:40:33;;;;;;;77.90;35.70;;;;;;;-0.54;70.80;100556.13;5173375;28;20057;-81
2022/01/15 00:43:24;;;;;;;74.32;34.42;;;;;;;-0.78;70.71;100543.69;5178776;28;20122;-78
2022/01/15 00:46:14;;;;;;;73.20;35.17;;;;;;;-0.80;71.25;100556.72;5172644;28;20065;-81
2022/01/15 00:49:05;;;;;;;73.90;34.60;;;;;;;-0.80;71.35;100543.69;5164471;28;20045;-80
2022/01/15 00:51:55;;;;;;;78.80;36.10;;;;;;;-0.77;71.36;100538.44;5132302;28;20074;-80
2022/01/15 00:54:45;;;;;;;73.70;34.50;;;;;;;-0.88;70.67;100539.56;5145924;28;20053;-79
2022/01/15 00:57:35;;;;;;;74.78;34.50;;;;;;;-0.78;71.27;100551.50;5145335;28;20238;-81
2022/01/15 01:00:26;;;;;;;78.47;35.33;;;;;;;-0.81;71.29;100541.16;5145969;28;20054;-82
2022/01/15 01:03:17;;;;;;;81.75;36.90;;;;;;;-0.78;71.17;100546.28;5145322;28;20079;-82
2022/01/15 01:06:07;;;;;;;76.85;32.42;;;;;;;-0.96;70.60;100524.09;5131734;28;20073;-79
2022/01/15 01:08:57;;;;;;;72.80;32.92;;;;;;;-1.17;70.46;100501.16;5132543;28;20081;-80
2022/01/15 01:11:54;;;;;;;68.45;32.20;;;;;;;-1.00;70.69;100527.66;5146723;28;20134;-81
2022/01/15 01:24:11;;;;;;;70.78;33.50;;;;;;;-0.90;70.90;100518.75;5187695;28;20048;-79
2022/01/15 01:27:11;;;;;;;54.80;27.55;;;;;;;-0.89;70.88;100527.44;5200485;28;20060;-81
2022/01/15 01:30:10;;;;;;;58.10;29.27;;;;;;;-1.01;70.49;100515.56;5174311;28;20092;-80
2022/01/15 01:33:16;;;;;;;64.85;28.55;;;;;;;-1.05;70.62;100511.31;5201009;28;20601;-82
2022/01/15 01:39:15;;;;;;;53.58;28.13;;;;;;;-1.11;69.68;100514.03;5171151;28;20147;-81
2022/01/15 01:42:13;;;;;;;58.05;25.65;;;;;;;-1.19;71.03;100501.19;5167538;28;20065;-82
2022/01/15 01:45:13;;;;;;;50.58;24.95;;;;;;;-1.09;70.50;100509.63;5171823;28;20093;-82
2022/01/15 01:48:03;;;;;;;48.47;24.27;;;;;;;-1.03;70.29;100512.13;5172918;28;20061;-80
2022/01/15 01:50:53;;;;;;;49.20;24.27;;;;;;;-0.93;70.32;100507.56;5164927;28;20489;-79
2022/01/15 01:53:44;;;;;;;50.65;23.35;;;;;;;-0.98;70.16;100518.94;5147519;28;20090;-82
2022/01/15 01:56:35;;;;;;;45.00;22.88;;;;;;;-1.09;70.83;100518.34;5144855;28;20523;-81
2022/01/15 01:59:27;;;;;;;51.35;23.13;;;;;;;-1.16;70.25;100513.25;5158118;28;20181;-80
2022/01/15 02:02:17;;;;;;;46.25;22.05;;;;;;;-1.13;70.18;100519.25;5143885;28;20050;-80
2022/01/15 02:05:09;;;;;;;45.95;22.33;;;;;;;-1.24;70.06;100497.81;5144413;28;20516;-81
2022/01/15 02:07:59;;;;;;;46.45;22.95;;;;;;;-1.31;70.73;100501.44;5130749;28;20054;-79
2022/01/15 02:10:50;;;;;;;57.25;23.73;;;;;;;-1.19;69.80;100509.84;5130830;28;20039;-80
2022/01/15 02:13:43;;;;;;;53.60;24.70;;;;;;;-1.25;69.58;100490.91;5144449;28;20057;-81
2022/01/15 02:16:33;;;;;;;57.60;27.40;;;;;;;-1.26;70.12;100499.59;5143402;28;20452;-80
2022/01/15 02:19:31;;;;;;;61.38;28.25;;;;;;;-1.22;70.50;100490.84;5165128;28;20093;-79
2022/01/15 02:25:41;;;;;;;46.92;21.40;;;;;;;-1.35;71.11;100450.38;5147523;28;20057;-81
2022/01/15 02:28:37;;;;;;;39.05;18.80;;;;;;;-1.16;70.93;100492.44;5150995;28;20067;-78
2022/01/15 02:31:30;;;;;;;45.45;20.92;;;;;;;-1.19;69.62;100493.41;5156842;28;20062;-80
2022/01/15 02:34:20;;;;;;;41.00;19.85;;;;;;;-1.17;70.02;100499.41;5148008;28;20076;-79
2022/01/15 02:37:10;;;;;;;40.85;20.52;;;;;;;-1.31;69.85;100475.44;5161676;28;20536;-79
2022/01/15 02:40:01;;;;;;;42.13;21.85;;;;;;;-1.15;69.91;100486.38;5155571;28;20047;-78
2022/01/15 02:42:51;;;;;;;46.05;21.05;;;;;;;-1.26;70.66;100484.88;5164347;28;20057;-77
2022/01/15 02:45:44;;;;;;;53.50;22.33;;;;;;;-1.12;70.89;100489.75;5170876;28;20134;-77
2022/01/15 02:48:36;;;;;;;42.50;21.27;;;;;;;-1.39;70.07;100466.91;5157209;28;20133;-78
2022/01/15 02:51:32;;;;;;;47.78;22.10;;;;;;;-1.19;70.14;100486.44;5171176;28;20041;-78
2022/01/15 02:54:22;;;;;;;52.88;23.33;;;;;;;-1.43;70.10;100427.94;5169738;28;20057;-79
2022/01/15 02:57:12;;;;;;;59.20;26.10;;;;;;;-1.11;70.77;100486.25;5183387;28;20499;-78
2022/01/15 03:00:04;;;;;;;47.83;25.38;;;;;;;-1.39;70.27;100454.78;5169383;28;20559;-79
2022/01/15 03:02:54;;;;;;;57.08;25.65;;;;;;;-1.33;70.34;100467.63;5182608;28;20050;-78
2022/01/15 03:05:44;;;;;;;59.47;27.95;;;;;;;-1.22;69.76;100481.28;5161743;28;20177;-78
2022/01/15 03:08:34;;;;;;;60.33;26.60;;;;;;;-1.54;69.87;100440.34;5148890;28;20073;-78
2022/01/15 03:11:24;;;;;;;57.55;26.65;;;;;;;-1.39;69.44;100457.38;5163215;28;20065;-79
2022/01/15 03:14:18;;;;;;;59.30;27.55;;;;;;;-1.44;69.86;100454.00;5162654;28;20146;-79
2022/01/15 03:17:08;;;;;;;65.95;29.00;;;;;;;-1.61;69.80;100417.97;5161984;28;20702;-79
2022/01/15 03:20:04;;;;;;;64.65;30.38;;;;;;;-1.33;70.05;100452.03;5162330;28;20100;-79
2022/01/15 03:22:55;;;;;;;63.03;30.42;;;;;;;-1.24;69.97;100464.00;5158731;28;20146;-80
2022/01/15 03:25:45;;;;;;;68.72;32.03;;;;;;;-1.44;70.57;100433.22;5162292;28;20049;-80
2022/01/15 03:28:36;;;;;;;69.13;32.97;;;;;;;-1.45;70.21;100432.34;5165533;28;20536;-79
2022/01/15 03:31:26;;;;;;;72.75;33.88;;;;;;;-1.60;70.80;100392.81;5158190;28;20041;-80
2022/01/15 03:34:16;;;;;;;70.20;33.25;;;;;;;-1.56;70.49;100420.44;5161463;28;20118;-81
2022/01/15 03:37:07;;;;;;;71.70;33.75;;;;;;;-1.44;70.21;100443.59;5176886;28;20070;-80
2022/01/15 03:39:57;;;;;;;75.20;35.15;;;;;;;-1.55;70.46;100451.66;5175670;28;20058;-81
2022/01/15 03:42:47;;;;;;;73.80;35.15;;;;;;;-1.63;70.78;100432.72;5153890;28;20049;-79
2022/01/15 03:45:37;;;;;;;72.00;32.20;;;;;;;-1.60;69.73;100440.47;5153624;28;20061;-78
2022/01/15 03:48:27;;;;;;;67.22;31.27;;;;;;;-1.53;69.70;100439.44;5166530;28;20081;-80
2022/01/15 03:51:19;;;;;;;66.82;30.60;;;;;;;-1.58;70.06;100430.91;5185451;22;20416;-67
2022/01/15 03:54:09;;;;;;;72.78;32.47;;;;;;;-1.58;70.64;100428.31;5166336;28;20069;-66
2022/01/15 03:57:00;;;;;;;80.72;33.90;;;;;;;-1.53;71.23;100434.25;5187919;28;20187;-66
2022/01/15 03:59:50;;;;;;;82.75;35.72;;;;;;;-1.65;72.70;100421.53;5184662;28;20192;-66
2022/01/15 04:02:44;;;;;;;75.53;35.47;;;;;;;-1.38;71.82;100442.63;5185413;28;20057;-67
2022/01/15 04:05:35;;;;;;;76.63;35.08;;;;;;;-1.29;72.32;100435.47;5184625;28;20057;-66
2022/01/15 04:08:25;;;;;;;91.03;37.75;;;;;;;-1.23;71.46;100440.53;5185641;28;20562;-66
2022/01/15 04:11:15;;;;;;;84.38;36.97;;;;;;;-1.23;72.57;100442.28;5185237;28;20416;-66
2022/01/15 04:14:06;;;;;;;84.85;38.08;;;;;;;-1.19;72.14;100437.00;5185670;28;20045;-66
2022/01/15 04:16:55;;;;;;;80.97;38.83;;;;;;;-1.22;71.93;100425.78;5184818;28;20050;-67
2022/01/15 04:19:45;;;;;;;112.70;41.33;;;;;;;-1.33;73.36;100436.41;5186159;28;20081;-66
2022/01/15 04:22:36;;;;;;;100.35;42.55;;;;;;;-1.29;73.94;100429.41;5194014;28;20180;-66
2022/01/15 04:25:26;;;;;;;96.82;41.58;;;;;;;-1.19;73.80;100433.53;5206202;28;20053;-67
2022/01/15 04:28:16;;;;;;;105.82;41.78;;;;;;;-1.09;73.03;100421.13;5207693;28;20061;-67
2022/01/15 04:31:08;;;;;;;148.70;42.85;;;;;;;-0.99;72.82;100430.47;5203762;28;20053;-67
2022/01/15 04:33:59;;;;;;;107.55;42.97;;;;;;;-0.91;72.65;100427.69;5185252;28;20044;-67
2022/01/15 04:36:50;;;;;;;107.70;43.35;;;;;;;-0.95;72.35;100416.47;5184495;28;20557;-67
2022/01/15 04:39:42;;;;;;;131.82;43.47;;;;;;;-0.83;72.91;100417.91;5183911;28;20111;-67
2022/01/15 04:42:32;;;;;;;164.65;45.65;;;;;;;-0.74;71.98;100409.88;5184793;28;20056;-67
2022/01/15 04:45:22;;;;;;;180.38;45.13;;;;;;;-0.81;72.36;100409.19;5184533;28;20128;-67
2022/01/15 04:48:12;;;;;;;161.50;47.30;;;;;;;-0.89;74.19;100421.56;5183804;28;20053;-67
2022/01/15 04:51:02;;;;;;;173.07;46.25;;;;;;;-0.86;74.06;100397.16;5183163;28;20516;-67
2022/01/15 04:53:52;;;;;;;141.40;45.92;;;;;;;-0.93;74.28;100393.84;5196338;28;20049;-67
2022/01/15 04:56:42;;;;;;;182.85;50.17;;;;;;;-0.62;72.87;100420.00;5204830;28;20057;-67
2022/01/15 04:59:32;;;;;;;213.55;48.20;;;;;;;-0.77;72.96;100425.59;5205230;28;20049;-67
2022/01/15 05:02:23;;;;;;;212.65;51.03;;;;;;;-0.85;73.43;100431.00;5194156;28;20061;-67
2022/01/15 05:05:13;;;;;;;218.43;51.42;;;;;;;-0.66;73.52;100433.13;5184660;28;20180;-67
2022/01/15 05:08:05;;;;;;;139.48;47.85;;;;;;;-0.65;72.88;100429.66;5184237;28;20061;-67
2022/01/15 05:10:59;;;;;;;291.20;52.65;;;;;;;-0.96;74.01;100431.25;5149482;28;20057;-67
2022/01/15 05:13:49;;;;;;;288.15;51.97;;;;;;;-1.00;74.01;100424.38;5164291;28;20054;-67
2022/01/15 05:16:39;;;;;;;179.13;49.58;;;;;;;-0.66;73.55;100434.00;5163758;28;20208;-67
2022/01/15 05:19:30;;;;;;;258.70;53.95;;;;;;;-0.77;73.84;100413.41;5164443;28;20061;-67
2022/01/15 05:22:20;;;;;;;180.18;50.25;;;;;;;-0.67;74.21;100419.25;5168279;28;20447;-67
2022/01/15 05:25:13;;;;;;;270.33;51.28;;;;;;;-0.52;73.82;100434.50;5191765;28;20046;-67
2022/01/15 05:28:03;;;;;;;217.27;53.10;;;;;;;-0.65;72.92;100443.53;5204972;28;20064;-67
2022/01/15 05:30:53;;;;;;;255.75;49.03;;;;;;;-0.60;73.30;100426.00;5204366;28;20053;-67
2022/01/15 05:33:44;;;;;;;189.35;50.92;;;;;;;-0.55;73.90;100439.81;5204699;28;20053;-67
2022/01/15 05:36:34;;;;;;;279.17;59.92;;;;;;;-0.64;74.07;100445.22;5204074;28;20038;-67
2022/01/15 05:39:24;;;;;;;218.15;53.85;;;;;;;-0.71;75.05;100448.88;5185265;28;20049;-68
2022/01/15 05:42:14;;;;;;;168.95;50.80;;;;;;;-0.45;74.14;100444.78;5183448;28;20118;-68
2022/01/15 05:45:04;;;;;;;190.20;52.33;;;;;;;-0.53;73.29;100442.34;5183762;28;20420;-67
2022/01/15 05:47:54;;;;;;;286.55;51.28;;;;;;;-0.54;73.70;100422.41;5183413;28;20507;-67
2022/01/15 05:50:44;;;;;;;313.60;55.83;;;;;;;-0.86;74.76;100428.41;5182904;28;20052;-67
2022/01/15 05:53:34;;;;;;;235.15;51.25;;;;;;;-0.67;74.56;100437.50;5186347;28;20052;-67
2022/01/15 05:56:26;;;;;;;227.82;56.17;;;;;;;-0.47;73.54;100437.00;5194910;28;20100;-68
2022/01/15 05:59:16;;;;;;;204.35;52.35;;;;;;;-0.72;74.72;100434.16;5203911;28;20045;-66
2022/01/15 06:02:06;;;;;;;159.52;48.55;;;;;;;-0.72;74.70;100413.31;5203617;28;20065;-67
2022/01/15 06:04:56;;;;;;;222.05;50.55;;;;;;;-0.53;73.07;100414.56;5203733;28;20056;-67
2022/01/15 06:07:46;;;;;;;333.02;56.47;;;;;;;-0.77;74.67;100413.41;5187518;28;20049;-66
2022/01/15 06:10:36;;;;;;;283.40;51.67;;;;;;;-0.67;74.15;100426.22;5183562;28;20121;-66
2022/01/15 06:13:27;;;;;;;272.35;51.30;;;;;;;-0.63;73.69;100422.63;5181976;28;20565;-66
2022/01/15 06:16:17;;;;;;;247.35;52.85;;;;;;;-0.59;74.79;100425.16;5182154;28;20115;-67
2022/01/15 06:19:07;;;;;;;182.73;50.88;;;;;;;-0.42;74.52;100424.72;5183306;28;20274;-66
2022/01/15 06:21:57;;;;;;;196.00;50.30;;;;;;;-0.43;72.89;100428.22;5182965;28;20528;-66
2022/01/15 06:24:48;;;;;;;266.00;50.35;;;;;;;-0.41;73.08;100430.78;5190544;28;20121;-67
2022/01/15 06:27:38;;;;;;;209.85;49.67;;;;;;;-0.45;72.91;100409.16;5184826;28;20064;-66
2022/01/15 06:30:28;;;;;;;206.38;54.30;;;;;;;-0.16;72.28;100418.81;5183297;28;20061;-67
2022/01/15 06:33:18;;;;;;;250.25;50.92;;;;;;;-0.23;71.97;100417.28;5183087;28;20057;-67
2022/01/15 06:36:08;;;;;;;174.10;48.53;;;;;;;-0.09;73.42;100427.31;5181147;28;20168;-67
2022/01/15 06:38:58;;;;;;;171.20;51.55;;;;;;;-0.13;72.64;100423.94;5183422;28;20421;-68
2022/01/15 06:41:48;;;;;;;147.80;48.47;;;;;;;-0.13;72.79;100423.94;5182500;28;20073;-67
2022/01/15 06:44:38;;;;;;;342.80;53.15;;;;;;;-0.01;71.75;100415.78;5182889;28;20060;-68
2022/01/15 06:47:29;;;;;;;313.55;52.40;;;;;;;-0.11;73.03;100405.66;5182528;28;20480;-68
2022/01/15 06:50:25;;;;;;;223.57;46.75;;;;;;;-0.17;72.08;100400.59;5182297;28;20164;-68
2022/01/15 06:53:15;;;;;;;199.25;48.90;;;;;;;-0.13;72.24;100402.22;5182417;28;20053;-67
2022/01/15 06:56:06;;;;;;;204.88;48.08;;;;;;;0.12;71.84;100410.22;5189135;28;20171;-67
2022/01/15 06:58:56;;;;;;;314.95;51.13;;;;;;;-0.26;72.88;100401.72;5188489;28;20057;-67
2022/01/15 07:01:46;;;;;;;171.40;44.63;;;;;;;-0.30;73.10;100413.97;5182123;28;20038;-67
2022/01/15 07:04:37;;;;;;;265.02;45.97;;;;;;;-0.36;73.80;100410.69;5182328;28;20045;-68
2022/01/15 07:07:28;;;;;;;260.83;46.75;;;;;;;-0.17;73.03;100408.41;5180883;28;20046;-68
2022/01/15 07:10:18;;;;;;;164.00;45.28;;;;;;;-0.11;72.80;100409.09;5182273;28;20046;-67
2022/01/15 07:13:13;;;;;;;213.18;47.38;;;;;;;-0.05;72.49;100406.34;5182231;28;20423;-67
2022/01/15 07:16:03;;;;;;;190.38;46.40;;;;;;;0.07;71.77;100417.34;5181206;28;20053;-67
2022/01/15 07:18:53;;;;;;;243.95;46.65;;;;;;;0.04;72.08;100412.22;5181630;28;20053;-68
2022/01/15 07:21:43;;;;;;;306.23;47.38;;;;;;;-0.18;72.81;100404.97;5181748;28;20057;-67
2022/01/15 07:24:33;;;;;;;224.48;46.33;;;;;;;-0.10;72.34;100408.22;5182434;28;20060;-67
2022/01/15 07:27:24;;;;;;;243.13;44.50;;;;;;;0.24;70.53;100402.06;5181577;28;20096;-67
2022/01/15 07:30:17;;;;;;;322.03;47.80;;;;;;;-0.08;71.18;100398.59;5180011;28;20415;-67
2022/01/15 07:33:07;;;;;;;185.80;48.67;;;;;;;-0.04;72.61;100404.56;5181729;28;20065;-68
2022/01/15 07:35:57;;;;;;;235.82;48.00;;;;;;;-0.27;72.02;100387.81;5180512;28;20097;-67
2022/01/15 07:38:48;;;;;;;151.73;46.85;;;;;;;-0.20;73.65;100388.50;5180839;28;20100;-67
2022/01/15 07:41:38;;;;;;;145.15;48.10;;;;;;;-0.26;72.74;100393.91;5180907;28;20042;-67
2022/01/15 07:44:28;;;;;;;195.77;45.60;;;;;;;-0.23;73.06;100388.59;5181901;28;20053;-68
2022/01/15 07:47:19;;;;;;;259.77;47.45;;;;;;;-0.43;73.36;100398.69;5180631;28;20073;-66
2022/01/15 07:50:25;;;;;;;220.25;45.83;;;;;;;-0.38;74.46;100404.63;5180857;28;20100;-66
2022/01/15 07:53:16;;;;;;;210.85;49.38;;;;;;;-0.26;73.26;100379.09;5182278;28;20045;-66
2022/01/15 07:56:06;;;;;;;203.20;45.53;;;;;;;-0.13;72.60;100403.09;5181530;28;20148;-66
2022/01/15 07:58:56;;;;;;;219.05;47.20;;;;;;;-0.64;73.48;100374.91;5181955;28;20486;-66
2022/01/15 08:01:47;;;;;;;200.70;45.92;;;;;;;-0.49;73.37;100382.31;5180370;28;20087;-67
2022/01/15 08:04:37;;;;;;;113.82;43.33;;;;;;;-0.38;72.76;100399.44;5183348;28;20140;-67
2022/01/15 08:07:27;;;;;;;247.57;45.28;;;;;;;-0.26;73.13;100393.91;5181214;28;20119;-66
2022/01/15 08:10:18;;;;;;;192.27;44.65;;;;;;;-0.17;73.87;100393.63;5180976;28;20765;-66
2022/01/15 08:13:08;;;;;;;146.13;45.15;;;;;;;-0.03;72.37;100381.09;5181158;28;20050;-66
2022/01/15 08:16:01;;;;;;;132.65;44.75;;;;;;;-0.15;73.47;100385.78;5184654;28;20052;-66
2022/01/15 08:18:51;;;;;;;178.15;48.05;;;;;;;-0.21;72.75;100376.38;5185708;28;20053;-66
2022/01/15 08:21:42;;;;;;;302.83;46.97;;;;;;;-0.26;72.96;100360.88;5198310;28;20101;-66
2022/01/15 08:24:33;;;;;;;359.42;45.70;;;;;;;-0.10;73.14;100373.44;5184481;28;20427;-67
2022/01/15 08:27:23;;;;;;;400.88;45.28;;;;;;;-0.28;72.89;100374.81;5185101;28;20098;-68
2022/01/15 08:30:14;;;;;;;394.30;44.83;;;;;;;-0.43;73.10;100383.94;5177224;28;20507;-68
2022/01/15 08:33:05;;;;;;;366.63;45.03;;;;;;;-0.35;71.90;100352.44;5167973;28;20050;-66
2022/01/15 08:35:55;;;;;;;217.90;41.85;;;;;;;-0.56;73.91;100380.78;5180134;28;20049;-67
2022/01/15 08:38:45;;;;;;;221.63;42.38;;;;;;;-0.64;74.22;100377.50;5165309;28;20049;-67
2022/01/15 08:41:50;;;;;;;214.75;42.42;;;;;;;-0.10;73.89;100376.06;5164655;28;20065;-68
2022/01/15 08:44:43;;;;;;;271.00;42.65;;;;;;;-0.11;72.18;100390.84;5164261;28;20057;-68
2022/01/15 08:47:34;;;;;;;288.63;42.90;;;;;;;0.06;72.12;100368.66;5180407;28;20427;-68
2022/01/15 08:50:24;;;;;;;234.90;43.33;;;;;;;0.24;70.46;100381.19;5173545;28;20057;-67
2022/01/15 08:53:17;;;;;;;199.65;43.20;;;;;;;0.02;72.81;100380.09;5176020;28;20484;-66
2022/01/15 08:56:07;;;;;;;158.07;43.95;;;;;;;0.13;71.35;100375.41;5181542;28;20061;-67
2022/01/15 08:58:57;;;;;;;226.00;43.28;;;;;;;-0.06;72.57;100375.94;5183732;28;20050;-67
2022/01/15 09:01:48;;;;;;;176.13;43.08;;;;;;;-0.11;72.81;100358.72;5175679;28;20421;-68
2022/01/15 09:04:39;;;;;;;388.50;47.42;;;;;;;-0.22;71.34;100371.22;5171416;28;20065;-67
2022/01/15 09:07:30;;;;;;;232.95;43.25;;;;;;;-0.20;72.74;100357.22;5182566;28;20053;-67
2022/01/15 09:10:20;;;;;;;316.25;48.95;;;;;;;-0.11;70.87;100362.16;5182991;28;20099;-66
2022/01/15 09:13:11;;;;;;;200.57;47.40;;;;;;;0.09;71.92;100358.16;5184042;28;20049;-66
2022/01/15 09:16:02;;;;;;;162.45;44.33;;;;;;;-0.03;72.37;100375.03;5183615;28;20056;-67
2022/01/15 09:18:52;;;;;;;193.90;47.13;;;;;;;-0.11;73.05;100375.22;5183777;28;20605;-66
2022/01/15 09:21:42;;;;;;;177.98;44.15;;;;;;;-0.04;71.40;100357.63;5183986;28;20448;-67
2022/01/15 09:24:32;;;;;;;138.15;43.50;;;;;;;-0.12;73.32;100378.72;5184058;28;20061;-68
2022/01/15 09:30:32;;;;;;;150.07;42.67;;;;;;;-0.02;72.17;100353.25;5184012;28;20672;-67
2022/01/15 09:33:22;;;;;;;145.98;42.63;;;;;;;0.27;71.52;100370.66;5183074;28;20053;-67
2022/01/15 09:36:13;;;;;;;244.63;48.97;;;;;;;0.46;71.18;100368.34;5185940;28;20057;-67
2022/01/15 09:39:03;;;;;;;213.15;47.83;;;;;;;0.35;71.69;100380.88;5197742;28;20045;-67
2022/01/15 09:41:55;;;;;;;192.40;47.85;;;;;;;0.39;70.47;100367.66;5178222;28;20038;-66
2022/01/15 09:44:47;;;;;;;285.50;49.10;;;;;;;0.31;71.16;100361.00;5180840;28;20053;-65
2022/01/15 09:47:38;;;;;;;200.07;43.08;;;;;;;0.13;72.55;100378.91;5177334;28;20120;-64
2022/01/15 09:50:32;;;;;;;187.45;42.15;;;;;;;0.14;71.62;100361.50;5182689;28;20042;-65
2022/01/15 09:53:22;;;;;;;102.82;42.25;;;;;;;0.39;72.24;100365.06;5180244;28;20053;-65
2022/01/15 09:56:12;;;;;;;200.15;40.35;;;;;;;0.07;72.36;100366.03;5178621;28;20500;-65
2022/01/15 09:59:03;;;;;;;174.95;40.90;;;;;;;0.10;72.29;100357.25;5178422;28;20207;-65
2022/01/15 10:01:54;;;;;;;123.47;41.22;;;;;;;0.46;71.10;100364.00;5178996;28;20042;-65
2022/01/15 10:04:44;;;;;;;116.57;41.55;;;;;;;0.50;71.55;100354.31;5178569;28;20153;-68
2022/01/15 10:07:35;;;;;;;101.53;38.40;;;;;;;0.33;70.51;100323.53;5182295;28;20049;-67
2022/01/15 10:10:28;;;;;;;118.70;36.30;;;;;;;0.40;71.68;100361.56;5183490;28;20069;-68
2022/01/15 10:13:24;;;;;;;151.10;37.08;;;;;;;0.27;71.47;100355.00;5184438;28;20056;-66
2022/01/15 10:16:17;;;;;;;133.38;36.92;;;;;;;0.49;71.66;100357.81;5181434;28;20129;-67
2022/01/15 10:19:23;;;;;;;229.70;40.45;;;;;;;-0.43;73.91;100356.97;5182555;28;20578;-65
2022/01/15 10:22:20;;;;;;;272.38;40.35;;;;;;;-0.11;74.62;100354.34;5183168;28;20034;-66
2022/01/15 10:25:15;;;;;;;124.35;39.10;;;;;;;0.21;72.98;100332.56;5181562;28;20053;-65
2022/01/15 10:28:05;;;;;;;131.95;39.83;;;;;;;0.66;72.72;100344.25;5165076;28;20057;-65
2022/01/15 10:30:55;;;;;;;130.18;43.17;;;;;;;0.55;72.39;100346.34;5162210;28;20062;-66
2022/01/15 10:33:45;;;;;;;205.57;41.85;;;;;;;0.45;71.73;100336.19;5165417;28;20048;-65
2022/01/15 10:36:35;;;;;;;226.50;41.38;;;;;;;0.41;73.77;100339.78;5165987;28;20447;-66
2022/01/15 10:39:25;;;;;;;194.50;41.33;;;;;;;0.47;72.22;100328.31;5174010;28;20042;-65
2022/01/15 10:42:19;;;;;;;156.18;42.70;;;;;;;0.51;73.68;100336.91;5174111;28;20504;-66
2022/01/15 10:45:12;;;;;;;223.00;45.85;;;;;;;0.78;71.95;100332.56;5174539;28;20424;-66
2022/01/15 10:48:07;;;;;;;194.27;43.35;;;;;;;0.74;72.42;100321.38;5174097;28;20716;-65
2022/01/15 10:51:06;;;;;;;108.18;42.38;;;;;;;0.72;72.49;100310.09;5177212;28;20527;-65
2022/01/15 10:54:01;;;;;;;240.48;45.20;;;;;;;0.64;74.16;100310.38;5183121;28;20085;-65
2022/01/15 10:57:11;;;;;;;184.13;42.47;;;;;;;1.01;71.35;100297.88;5180604;28;20041;-65
2022/01/15 11:00:09;;;;;;;128.25;42.60;;;;;;;1.29;71.35;100295.16;5166918;28;20043;-65
2022/01/15 11:03:02;;;;;;;202.75;43.30;;;;;;;1.09;70.69;100277.53;5166868;28;20073;-65
2022/01/15 11:05:53;;;;;;;174.25;42.63;;;;;;;1.17;71.06;100288.59;5181645;28;20107;-65
2022/01/15 11:08:43;;;;;;;204.07;43.65;;;;;;;1.09;70.50;100272.31;5180829;28;20425;-67
2022/01/15 11:11:33;;;;;;;207.85;43.67;;;;;;;1.31;70.46;100277.66;5182206;28;20120;-65
2022/01/15 11:14:22;;;;;;;123.82;41.40;;;;;;;1.41;70.88;100287.72;5182549;28;20052;-66
2022/01/15 11:17:13;;;;;;;193.70;43.22;;;;;;;1.80;69.17;100284.59;5181691;28;20076;-65
2022/01/15 11:20:05;;;;;;;227.90;43.08;;;;;;;1.63;69.95;100281.75;5172233;28;20046;-66
2022/01/15 11:22:55;;;;;;;122.60;42.20;;;;;;;1.57;70.57;100279.34;5174750;28;20051;-66
2022/01/15 11:25:47;;;;;;;151.27;43.38;;;;;;;1.58;69.91;100275.81;5162353;28;20050;-67
2022/01/15 11:28:39;;;;;;;133.73;43.55;;;;;;;1.14;73.01;100278.25;5163558;28;20049;-64
2022/01/15 11:31:34;;;;;;;117.60;42.90;;;;;;;1.52;71.40;100270.81;5182195;28;20121;-65
2022/01/15 11:34:25;;;;;;;127.93;45.63;;;;;;;1.17;73.52;100267.69;5182357;28;20057;-65
2022/01/15 11:37:19;;;;;;;237.13;53.58;;;;;;;1.35;73.14;100260.97;5181877;28;20046;-65
2022/01/15 11:40:40;;;;;;;138.45;50.78;;;;;;;1.57;71.48;100271.50;5181739;28;20053;-64
2022/01/15 11:43:35;;;;;;;143.57;49.13;;;;;;;1.64;72.24;100262.53;5197370;22;20046;-68
2022/01/15 11:46:28;;;;;;;197.80;49.72;;;;;;;1.24;73.17;100252.66;5178863;28;20131;-68
2022/01/15 11:49:23;;;;;;;131.52;48.05;;;;;;;1.12;75.09;100253.94;5182703;28;20465;-68
2022/01/15 11:52:18;;;;;;;243.38;48.83;;;;;;;0.76;74.97;100250.81;5180367;28;20061;-68
2022/01/15 11:55:11;;;;;;;239.38;52.63;;;;;;;1.21;74.09;100251.00;5181325;28;20319;-67
2022/01/15 11:58:01;;;;;;;140.00;49.85;;;;;;;1.83;72.98;100244.41;5184490;28;20428;-68
2022/01/15 12:00:51;;;;;;;143.45;52.10;;;;;;;1.97;71.91;100222.94;5183745;28;20136;-68
2022/01/15 12:03:45;;;;;;;198.52;51.63;;;;;;;1.86;71.61;100226.84;5185282;28;20088;-68
2022/01/15 12:07:09;;;;;;;192.73;50.53;;;;;;;1.20;74.16;100224.94;5184832;28;20127;-68
2022/01/15 12:10:02;;;;;;;175.77;51.30;;;;;;;1.57;75.07;100219.22;5173868;28;20432;-68
2022/01/15 12:12:53;;;;;;;149.20;52.45;;;;;;;1.60;73.53;100216.50;5164498;28;20512;-68
2022/01/15 12:15:43;;;;;;;135.32;52.42;;;;;;;1.95;73.43;100206.44;5164685;28;20105;-68
2022/01/15 12:18:44;;;;;;;133.07;52.95;;;;;;;1.81;73.94;100199.13;5165034;28;20218;-68
2022/01/15 12:21:54;;;;;;;138.38;53.22;;;;;;;2.11;74.32;100210.16;5183607;28;20048;-68
2022/01/15 12:24:52;;;;;;;154.13;53.15;;;;;;;2.02;73.36;100197.44;5184884;28;20120;-68
2022/01/15 12:28:05;;;;;;;139.93;51.17;;;;;;;1.76;74.13;100190.63;5184321;28;20433;-68
2022/01/15 12:30:57;;;;;;;140.15;53.03;;;;;;;2.36;72.58;100189.13;5182531;28;20041;-66
2022/01/15 12:33:47;;;;;;;141.65;52.35;;;;;;;2.40;72.69;100166.28;5184676;28;20052;-66
2022/01/15 12:36:50;;;;;;;148.02;53.20;;;;;;;2.50;72.77;100184.16;5182738;28;20049;-66
2022/01/15 12:39:41;;;;;;;141.52;54.13;;;;;;;2.63;72.67;100175.78;5177155;28;20090;-66
2022/01/15 12:42:33;;;;;;;146.85;53.05;;;;;;;2.70;71.14;100166.75;5164054;28;20044;-66
2022/01/15 12:45:24;;;;;;;144.38;55.75;;;;;;;2.61;71.63;100165.38;5164788;28;20116;-66
2022/01/15 12:48:17;;;;;;;145.57;54.47;;;;;;;1.93;74.35;100158.59;5164178;28;20057;-66
2022/01/15 12:51:27;;;;;;;142.43;55.78;;;;;;;2.50;72.92;100154.50;5163047;28;20073;-66
2022/01/15 12:54:29;;;;;;;138.30;53.70;;;;;;;2.66;72.59;100142.47;5164048;28;20184;-66
2022/01/15 12:57:36;;;;;;;148.80;57.78;;;;;;;2.61;73.14;100141.81;5173286;28;20123;-66
2022/01/15 13:00:35;;;;;;;162.98;59.85;;;;;;;2.79;73.22;100127.94;5178311;28;20430;-66
2022/01/15 13:03:27;;;;;;;147.10;57.03;;;;;;;3.07;71.86;100145.03;5164405;28;20109;-67
2022/01/15 13:06:24;;;;;;;141.90;56.75;;;;;;;2.97;71.38;100134.13;5175010;28;20050;-66
2022/01/15 13:09:14;;;;;;;145.18;56.65;;;;;;;2.98;72.71;100129.72;5170584;28;20057;-66
2022/01/15 13:12:07;;;;;;;145.30;58.17;;;;;;;3.07;71.88;100126.69;5183729;28;20189;-67
2022/01/15 13:14:57;;;;;;;148.07;56.85;;;;;;;3.40;71.81;100128.72;5183915;28;20420;-67
2022/01/15 13:17:47;;;;;;;137.70;56.63;;;;;;;3.38;71.56;100122.69;5182327;28;20045;-66